createdAt,value
2023-01-29T00:01:18.552Z,75.55
2023-01-29T00:03:45.117Z,75.85
2023-01-29T00:06:13.158Z,74.74
2023-01-29T00:08:39.973Z,75.35
2023-01-29T00:11:06.956Z,74.94
2023-01-29T00:13:34.702Z,75.29
2023-01-29T00:16:01.731Z,75.08
2023-01-29T00:18:29.222Z,75.72
2023-01-29T00:20:55.883Z,76.30
2023-01-29T00:23:22.467Z,76.70
2023-01-29T00:25:49.089Z,76.92
2023-01-29T00:28:15.740Z,76.56
2023-01-29T00:30:42.593Z,76.37
2023-01-29T00:33:09.198Z,76.43
2023-01-29T00:35:35.714Z,76.64
2023-01-29T00:38:02.222Z,76.79
2023-01-29T00:40:28.723Z,76.82
2023-01-29T00:43:13.952Z,76.15
2023-01-29T00:45:40.519Z,75.47
2023-01-29T00:48:07.330Z,75.62
2023-01-29T00:50:34.102Z,75.48
2023-01-29T00:53:00.660Z,75.63
2023-01-29T00:55:27.267Z,75.97
2023-01-29T00:57:53.860Z,75.95
2023-01-29T01:00:20.600Z,75.98
2023-01-29T01:03:05.702Z,76.02
2023-01-29T01:05:32.253Z,75.83
2023-01-29T01:07:58.827Z,76.03
2023-01-29T01:10:32.151Z,75.83
2023-01-29T01:12:59.475Z,76.18
2023-01-29T01:15:27.146Z,76.29
2023-01-29T01:17:54.296Z,76.34
2023-01-29T01:20:20.800Z,75.85
2023-01-29T01:22:47.390Z,75.97
2023-01-29T01:25:13.934Z,76.14
2023-01-29T01:27:41.220Z,76.12
2023-01-29T01:30:09.298Z,76.56
2023-01-29T01:32:35.782Z,76.12
2023-01-29T01:35:02.227Z,76.07
2023-01-29T01:37:28.677Z,76.27
2023-01-29T01:39:57.903Z,76.17
2023-01-29T01:42:30.605Z,76.19
2023-01-29T01:45:01.409Z,76.27
2023-01-29T01:47:27.904Z,76.29
2023-01-29T01:49:54.771Z,76.21
2023-01-29T01:52:21.285Z,76.16
2023-01-29T01:54:47.854Z,76.09
2023-01-29T01:57:18.347Z,76.04
2023-01-29T01:59:48.898Z,76.47
2023-01-29T02:02:34.479Z,76.14
2023-01-29T02:05:19.743Z,76.28
2023-01-29T02:08:05.012Z,76.32
2023-01-29T02:10:32.220Z,76.39
2023-01-29T02:12:58.677Z,76.40
2023-01-29T02:15:25.187Z,76.12
2023-01-29T02:17:51.682Z,75.41
2023-01-29T02:20:19.197Z,75.12
2023-01-29T02:23:02.635Z,75.25
2023-01-29T02:25:36.906Z,75.52
2023-01-29T02:28:03.355Z,75.48
2023-01-29T02:30:34.102Z,74.97
2023-01-29T02:36:35.094Z,73.76
2023-01-29T02:39:09.069Z,74.10
2023-01-29T02:41:46.442Z,74.49
2023-01-29T02:44:15.980Z,74.81
2023-01-29T02:46:45.498Z,74.98
2023-01-29T02:49:35.362Z,75.13
2023-01-29T02:55:30.021Z,74.41
2023-01-29T02:57:58.264Z,74.13
2023-01-29T03:00:27.718Z,74.32
2023-01-29T03:06:27.513Z,75.01
2023-01-29T03:12:36.833Z,75.33
2023-01-29T03:18:38.081Z,74.74
2023-01-29T03:24:54.668Z,74.20
2023-01-29T03:44:56.035Z,73.20
2023-01-29T03:47:22.506Z,73.45
2023-01-29T03:49:54.993Z,73.25
2023-01-29T03:52:27.350Z,72.85
2023-01-29T03:55:06.793Z,72.39
2023-01-29T03:57:38.497Z,72.19
2023-01-29T04:00:08.219Z,71.78
2023-01-29T04:02:36.085Z,72.04
2023-01-29T04:05:05.093Z,72.17
2023-01-29T04:07:33.543Z,72.03
2023-01-29T04:10:00.094Z,71.90
2023-01-29T04:12:27.244Z,71.75
2023-01-29T04:14:53.734Z,71.59
2023-01-29T04:17:22.219Z,71.68
2023-01-29T04:19:48.690Z,71.51
2023-01-29T04:22:35.430Z,70.89
2023-01-29T04:25:08.499Z,71.12
2023-01-29T04:27:47.206Z,70.75
2023-01-29T04:30:13.790Z,71.67
2023-01-29T04:32:56.069Z,71.48
2023-01-29T04:35:31.312Z,71.40
2023-01-29T04:38:07.489Z,71.73
2023-01-29T04:40:37.726Z,71.67
2023-01-29T04:43:05.154Z,71.21
2023-01-29T04:45:34.591Z,71.35
2023-01-29T04:48:26.011Z,72.06
2023-01-29T04:50:58.652Z,72.36
2023-01-29T04:53:25.029Z,72.78
2023-01-29T04:55:52.751Z,73.03
2023-01-29T04:58:19.157Z,73.15
2023-01-29T05:00:46.345Z,72.98
2023-01-29T05:03:14.051Z,72.77
2023-01-29T05:05:41.199Z,71.93
2023-01-29T05:08:08.008Z,70.94
2023-01-29T05:10:34.550Z,70.34
2023-01-29T05:13:01.713Z,70.10
2023-01-29T05:15:30.514Z,70.21
2023-01-29T05:18:01.864Z,70.39
2023-01-29T05:20:29.295Z,70.89
2023-01-29T05:22:55.913Z,71.18
2023-01-29T05:25:23.711Z,71.46
2023-01-29T05:28:16.397Z,71.67
2023-01-29T05:30:47.506Z,71.79
2023-01-29T05:33:17.735Z,71.56
2023-01-29T05:35:44.304Z,71.72
2023-01-29T05:38:10.809Z,71.90
2023-01-29T05:40:37.383Z,72.22
2023-01-29T05:43:04.478Z,72.06
2023-01-29T05:45:30.974Z,72.19
2023-01-29T05:47:58.079Z,72.42
2023-01-29T05:50:24.644Z,72.16
2023-01-29T05:52:55.898Z,71.98
2023-01-29T05:55:22.358Z,72.19
2023-01-29T05:57:48.847Z,71.81
2023-01-29T06:00:15.880Z,71.51
2023-01-29T06:02:42.538Z,71.44
2023-01-29T06:05:09.213Z,71.51
2023-01-29T06:07:36.169Z,71.18
2023-01-29T06:10:03.221Z,71.05
2023-01-29T06:12:29.685Z,71.10
2023-01-29T06:14:56.248Z,71.06
2023-01-29T06:17:22.676Z,71.03
2023-01-29T06:19:49.109Z,70.66
2023-01-29T06:22:15.559Z,70.23
2023-01-29T06:24:41.987Z,70.52
2023-01-29T06:27:08.488Z,70.82
2023-01-29T06:29:35.175Z,71.13
2023-01-29T06:32:01.702Z,71.25
2023-01-29T06:34:28.274Z,71.06
2023-01-29T06:36:54.752Z,69.98
2023-01-29T06:39:21.287Z,70.29
2023-01-29T06:41:47.906Z,70.65
2023-01-29T06:44:14.399Z,70.76
2023-01-29T06:46:40.986Z,71.10
2023-01-29T06:49:07.461Z,69.76
2023-01-29T06:51:33.982Z,69.20
2023-01-29T06:54:00.637Z,68.46
2023-01-29T06:56:27.140Z,68.62
2023-01-29T06:58:53.601Z,68.26
2023-01-29T07:01:34.508Z,68.98
2023-01-29T07:04:01.900Z,69.60
2023-01-29T07:06:28.930Z,69.77
2023-01-29T07:08:55.491Z,70.21
2023-01-29T07:11:21.960Z,70.42
2023-01-29T07:13:49.113Z,70.52
2023-01-29T07:16:15.807Z,70.89
2023-01-29T07:18:42.357Z,70.92
2023-01-29T07:21:09.013Z,71.00
2023-01-29T07:23:36.206Z,71.08
2023-01-29T07:26:04.040Z,70.00
2023-01-29T07:28:31.240Z,70.15
2023-01-29T07:30:58.909Z,70.14
2023-01-29T07:33:26.357Z,70.11
2023-01-29T07:35:53.672Z,69.25
2023-01-29T07:38:20.945Z,69.35
2023-01-29T07:40:48.775Z,68.65
2023-01-29T07:43:16.650Z,68.43
2023-01-29T07:45:43.276Z,68.05
2023-01-29T07:48:11.877Z,65.85
2023-01-29T07:50:39.137Z,65.15
2023-01-29T07:53:07.544Z,66.38
2023-01-29T07:55:34.918Z,66.25
2023-01-29T07:58:02.699Z,65.74
2023-01-29T08:00:30.335Z,65.70
2023-01-29T08:03:05.620Z,66.78
2023-01-29T08:05:32.851Z,67.24
2023-01-29T08:08:07.007Z,67.96
2023-01-29T08:10:35.925Z,68.02
2023-01-29T08:13:03.338Z,68.34
2023-01-29T08:15:32.257Z,68.19
2023-01-29T08:18:01.024Z,67.91
2023-01-29T08:20:30.248Z,66.72
2023-01-29T08:23:05.253Z,66.61
2023-01-29T08:25:32.828Z,66.69
2023-01-29T08:28:02.212Z,66.89
2023-01-29T08:30:30.566Z,67.09
2023-01-29T08:32:59.033Z,67.10
2023-01-29T08:35:26.836Z,66.86
2023-01-29T08:37:55.975Z,66.06
2023-01-29T08:40:23.268Z,66.31
2023-01-29T08:42:51.231Z,66.29
2023-01-29T08:45:20.104Z,66.61
2023-01-29T08:47:47.829Z,67.10
2023-01-29T08:50:15.931Z,66.67
2023-01-29T08:52:43.804Z,66.92
2023-01-29T08:55:11.392Z,67.24
2023-01-29T08:57:39.371Z,67.20
2023-01-29T09:00:11.269Z,67.29
2023-01-29T09:02:38.622Z,66.69
2023-01-29T09:05:06.450Z,67.01
2023-01-29T09:07:33.706Z,67.84
2023-01-29T09:10:01.628Z,68.04
2023-01-29T09:12:28.926Z,68.07
2023-01-29T09:14:56.206Z,68.22
2023-01-29T09:17:23.579Z,67.62
2023-01-29T09:19:52.724Z,66.79
2023-01-29T09:22:22.206Z,66.15
2023-01-29T09:24:54.245Z,66.70
2023-01-29T09:27:21.612Z,66.57
2023-01-29T09:29:48.931Z,67.06
2023-01-29T09:32:23.225Z,67.43
2023-01-29T09:34:59.175Z,67.83
2023-01-29T09:37:26.745Z,67.24
2023-01-29T09:39:55.952Z,67.29
2023-01-29T09:42:32.149Z,66.07
2023-01-29T09:45:06.886Z,66.20
2023-01-29T09:47:34.874Z,66.64
2023-01-29T09:50:20.140Z,66.83
2023-01-29T09:52:50.353Z,66.82
2023-01-29T09:55:44.108Z,66.89
2023-01-29T09:58:19.656Z,66.35
2023-01-29T10:00:50.103Z,65.34
2023-01-29T10:03:17.424Z,65.94
2023-01-29T10:05:47.999Z,66.22
2023-01-29T10:08:15.379Z,66.72
2023-01-29T10:10:58.822Z,66.76
2023-01-29T10:13:27.157Z,66.24
2023-01-29T10:16:00.544Z,64.61
2023-01-29T10:18:37.751Z,64.49
2023-01-29T10:21:06.024Z,63.84
2023-01-29T10:23:34.702Z,63.83
2023-01-29T10:26:04.103Z,63.76
2023-01-29T10:28:47.281Z,63.82
2023-01-29T10:31:19.900Z,63.97
2023-01-29T10:34:01.515Z,63.86
2023-01-29T10:36:35.264Z,63.25
2023-01-29T10:39:02.591Z,62.87
2023-01-29T10:41:48.597Z,62.56
2023-01-29T10:44:19.030Z,62.70
2023-01-29T10:46:52.162Z,62.97
2023-01-29T10:49:20.423Z,62.93
2023-01-29T10:52:06.349Z,62.19
2023-01-29T10:54:44.094Z,63.24
2023-01-29T10:57:13.796Z,63.62
2023-01-29T10:59:48.470Z,62.38
2023-01-29T11:02:18.900Z,62.63
2023-01-29T11:04:48.703Z,63.03
2023-01-29T11:07:16.091Z,62.81
2023-01-29T11:09:43.389Z,61.96
2023-01-29T11:12:17.050Z,62.68
2023-01-29T11:14:54.100Z,62.60
2023-01-29T11:17:21.736Z,62.34
2023-01-29T11:19:48.785Z,62.78
2023-01-29T11:22:16.545Z,62.16
2023-01-29T11:24:43.393Z,62.33
2023-01-29T11:27:23.373Z,61.90
2023-01-29T11:29:49.926Z,61.19
2023-01-29T11:32:19.364Z,61.88
2023-01-29T11:34:58.016Z,61.05
2023-01-29T11:37:24.494Z,60.69
2023-01-29T11:39:51.409Z,60.32
2023-01-29T11:42:21.483Z,59.77
2023-01-29T11:44:47.953Z,59.87
2023-01-29T11:47:14.470Z,60.07
2023-01-29T11:49:41.482Z,59.99
2023-01-29T11:52:08.827Z,60.30
2023-01-29T11:54:39.754Z,60.40
2023-01-29T11:57:06.420Z,60.39
2023-01-29T11:59:49.027Z,59.45
2023-01-29T12:02:21.685Z,58.61
2023-01-29T12:04:48.652Z,58.75
2023-01-29T12:07:16.559Z,59.17
2023-01-29T12:09:49.253Z,58.43
2023-01-29T12:12:21.716Z,58.05
2023-01-29T12:14:49.006Z,58.66
2023-01-29T12:17:20.095Z,57.45
2023-01-29T12:19:53.978Z,58.44
2023-01-29T12:22:35.578Z,58.92
2023-01-29T12:25:20.072Z,57.58
2023-01-29T12:27:56.514Z,57.70
2023-01-29T12:30:32.867Z,58.72
2023-01-29T12:33:13.356Z,58.83
2023-01-29T12:35:51.414Z,57.27
2023-01-29T12:38:23.713Z,57.54
2023-01-29T12:41:14.798Z,56.46
2023-01-29T12:44:04.475Z,56.34
2023-01-29T12:53:30.928Z,55.92
2023-01-29T12:56:00.560Z,55.10
2023-01-29T12:58:30.828Z,54.86
2023-01-29T13:00:59.463Z,55.66
2023-01-29T13:03:46.231Z,56.91
2023-01-29T13:06:14.819Z,56.67
2023-01-29T13:08:55.204Z,57.02
2023-01-29T13:11:25.592Z,57.30
2023-01-29T13:13:54.618Z,56.53
2023-01-29T13:16:28.312Z,56.42
2023-01-29T13:18:56.145Z,57.07
2023-01-29T13:21:27.437Z,56.82
2023-01-29T13:24:15.133Z,56.46
2023-01-29T13:26:44.534Z,56.62
2023-01-29T13:29:21.735Z,56.89
2023-01-29T13:31:48.257Z,57.02
2023-01-29T13:34:15.780Z,56.82
2023-01-29T13:36:46.041Z,57.30
2023-01-29T13:39:31.462Z,57.19
2023-01-29T13:41:58.353Z,57.11
2023-01-29T13:44:34.559Z,57.15
2023-01-29T13:47:02.328Z,57.72
2023-01-29T13:49:28.813Z,57.98
2023-01-29T13:51:55.395Z,57.96
2023-01-29T13:54:23.185Z,58.07
2023-01-29T13:57:00.174Z,58.67
2023-01-29T13:59:45.033Z,59.01
2023-01-29T14:02:41.007Z,59.27
2023-01-29T14:05:27.782Z,58.89
2023-01-29T14:07:54.416Z,58.17
2023-01-29T14:10:21.411Z,58.55
2023-01-29T14:12:48.781Z,59.20
2023-01-29T14:15:19.020Z,58.91
2023-01-29T14:18:06.017Z,59.59
2023-01-29T14:20:45.983Z,59.43
2023-01-29T14:23:28.148Z,59.34
2023-01-29T14:25:54.782Z,59.90
2023-01-29T14:28:22.933Z,59.54
2023-01-29T14:30:49.642Z,59.46
2023-01-29T14:33:23.879Z,59.65
2023-01-29T14:35:52.422Z,60.13
2023-01-29T14:38:19.051Z,60.36
2023-01-29T14:40:46.137Z,61.16
2023-01-29T14:43:21.939Z,60.56
2023-01-29T14:45:48.691Z,61.05
2023-01-29T14:48:33.950Z,60.51
2023-01-29T14:51:05.683Z,60.41
2023-01-29T14:53:46.008Z,61.06
2023-01-29T14:56:17.385Z,61.63
2023-01-29T14:58:56.133Z,61.37
2023-01-29T15:01:26.434Z,61.32
2023-01-29T15:04:13.235Z,61.55
2023-01-29T15:06:46.821Z,61.66
2023-01-29T15:09:36.692Z,61.69
2023-01-29T15:12:24.480Z,61.59
2023-01-29T15:14:59.993Z,61.79
2023-01-29T15:17:46.864Z,62.05
2023-01-29T15:20:33.821Z,61.79
2023-01-29T15:23:01.134Z,62.16
2023-01-29T15:25:28.270Z,62.04
2023-01-29T15:27:54.999Z,62.51
2023-01-29T15:30:26.568Z,62.86
2023-01-29T15:32:53.185Z,62.78
2023-01-29T15:35:35.826Z,62.71
2023-01-29T15:38:03.632Z,62.85
2023-01-29T15:40:30.228Z,63.38
2023-01-29T15:42:56.797Z,63.80
2023-01-29T15:45:23.367Z,64.13
2023-01-29T15:47:49.889Z,64.25
2023-01-29T15:50:16.413Z,64.09
2023-01-29T15:52:42.916Z,63.62
2023-01-29T15:55:10.666Z,63.89
2023-01-29T15:57:38.378Z,63.64
2023-01-29T16:00:05.082Z,63.40
2023-01-29T16:02:34.640Z,63.70
2023-01-29T16:05:01.250Z,64.40
2023-01-29T16:07:28.821Z,64.87
2023-01-29T16:09:55.341Z,65.74
2023-01-29T16:15:57.412Z,66.61
2023-01-29T16:18:35.965Z,67.12
2023-01-29T16:21:14.549Z,67.65
2023-01-29T16:23:44.566Z,67.56
2023-01-29T16:26:20.735Z,66.96
2023-01-29T16:28:47.254Z,67.69
2023-01-29T16:31:14.651Z,67.99
2023-01-29T16:33:42.237Z,68.39
2023-01-29T16:36:46.191Z,68.46
2023-01-29T16:39:19.473Z,68.21
2023-01-29T16:41:45.965Z,68.28
2023-01-29T16:44:15.489Z,68.39
2023-01-29T16:46:46.584Z,68.45
2023-01-29T16:49:28.437Z,68.06
2023-01-29T16:51:56.584Z,68.25
2023-01-29T16:54:26.271Z,68.83
2023-01-29T16:56:53.142Z,68.64
2023-01-29T16:59:37.931Z,68.41
2023-01-29T17:02:04.504Z,68.42
2023-01-29T17:04:30.994Z,68.15
2023-01-29T17:06:58.533Z,68.18
2023-01-29T17:09:27.544Z,68.07
2023-01-29T17:11:56.025Z,67.92
2023-01-29T17:14:23.034Z,68.63
2023-01-29T17:16:50.550Z,68.34
2023-01-29T17:19:18.277Z,68.77
2023-01-29T17:21:44.984Z,68.38
2023-01-29T17:24:11.547Z,68.60
2023-01-29T17:26:38.165Z,68.59
2023-01-29T17:29:04.685Z,69.01
2023-01-29T17:31:31.236Z,69.20
2023-01-29T17:33:57.758Z,69.00
2023-01-29T17:36:24.241Z,69.35
2023-01-29T17:38:50.749Z,68.93
2023-01-29T17:41:27.312Z,69.40
2023-01-29T17:43:53.809Z,69.10
2023-01-29T17:46:20.421Z,68.89
2023-01-29T17:48:46.940Z,69.42
2023-01-29T17:51:15.096Z,69.66
2023-01-29T17:53:45.856Z,69.21
2023-01-29T17:56:17.097Z,69.84
2023-01-29T17:58:43.781Z,69.91
2023-01-29T18:01:10.239Z,69.83
2023-01-29T18:03:36.951Z,69.42
2023-01-29T18:06:03.632Z,70.23
2023-01-29T18:08:31.113Z,69.66
2023-01-29T18:10:57.571Z,68.99
2023-01-29T18:13:24.031Z,69.88
2023-01-29T18:15:50.750Z,70.22
2023-01-29T18:18:20.918Z,70.58
2023-01-29T18:20:47.400Z,70.37
2023-01-29T18:23:13.932Z,70.91
2023-01-29T18:25:40.569Z,71.11
2023-01-29T18:28:07.048Z,70.22
2023-01-29T18:30:33.646Z,70.89
2023-01-29T18:33:00.262Z,70.32
2023-01-29T18:35:27.190Z,70.25
2023-01-29T18:37:53.667Z,69.79
2023-01-29T18:40:20.205Z,70.34
2023-01-29T18:42:46.894Z,70.51
2023-01-29T18:45:13.493Z,69.86
2023-01-29T18:47:40.010Z,69.85
2023-01-29T18:50:06.736Z,71.06
2023-01-29T18:52:34.329Z,70.18
2023-01-29T18:55:03.918Z,70.87
2023-01-29T18:58:26.896Z,71.11
2023-01-29T19:00:17.162Z,72.08
2023-01-29T19:02:44.840Z,72.19
2023-01-29T19:05:11.310Z,71.39
2023-01-29T19:07:37.888Z,71.71
2023-01-29T19:10:06.872Z,72.05
2023-01-29T19:12:34.427Z,73.31
2023-01-29T19:15:01.078Z,73.50
2023-01-29T19:17:27.779Z,73.01
2023-01-29T19:19:56.529Z,73.29
2023-01-29T19:22:23.002Z,71.98
2023-01-29T19:24:49.587Z,71.95
2023-01-29T19:27:16.050Z,71.24
2023-01-29T19:29:42.679Z,70.91
2023-01-29T19:32:10.046Z,71.81
2023-01-29T19:34:36.892Z,72.09
2023-01-29T19:37:03.727Z,71.27
2023-01-29T19:39:33.821Z,71.21
2023-01-29T19:42:01.090Z,72.70
2023-01-29T19:44:27.761Z,72.40
2023-01-29T19:46:54.283Z,72.12
2023-01-29T19:49:20.760Z,72.15
2023-01-29T19:51:47.442Z,72.54
2023-01-29T19:54:13.950Z,72.80
2023-01-29T19:56:40.525Z,73.20
2023-01-29T19:59:07.539Z,73.91
2023-01-29T20:01:34.054Z,73.30
2023-01-29T20:04:00.548Z,73.65
2023-01-29T20:06:27.579Z,73.33
2023-01-29T20:08:54.144Z,72.76
2023-01-29T20:11:21.136Z,72.60
2023-01-29T20:13:50.237Z,72.35
2023-01-29T20:16:17.336Z,72.33
2023-01-29T20:18:43.986Z,72.32
2023-01-29T20:21:11.250Z,71.56
2023-01-29T20:23:38.947Z,71.43
2023-01-29T20:26:09.213Z,72.45
2023-01-29T20:28:36.291Z,72.25
2023-01-29T20:31:03.251Z,71.89
2023-01-29T20:33:30.071Z,72.77
2023-01-29T20:35:57.084Z,72.18
2023-01-29T20:38:32.186Z,72.36
2023-01-29T20:41:12.968Z,71.96
2023-01-29T20:43:42.219Z,72.14
2023-01-29T20:46:17.162Z,72.48
2023-01-29T20:48:43.696Z,73.12
2023-01-29T20:51:13.070Z,72.96
2023-01-29T20:53:41.128Z,72.82
2023-01-29T20:56:08.125Z,72.71
2023-01-29T20:58:35.319Z,72.61
2023-01-29T21:01:02.070Z,72.18
2023-01-29T21:03:28.782Z,72.13
2023-01-29T21:05:57.617Z,71.39
2023-01-29T21:08:24.178Z,71.63
2023-01-29T21:11:04.999Z,71.84
2023-01-29T21:17:06.631Z,72.32
2023-01-29T21:19:33.129Z,72.43
2023-01-29T21:21:59.593Z,72.24
2023-01-29T21:24:26.353Z,72.10
2023-01-29T21:26:53.095Z,72.10
2023-01-29T21:29:19.912Z,71.82
2023-01-29T21:31:46.484Z,72.41
2023-01-29T21:34:13.051Z,71.05
2023-01-29T21:36:41.753Z,71.32
2023-01-29T21:39:17.473Z,71.57
2023-01-29T21:42:02.912Z,71.75
2023-01-29T21:44:29.472Z,71.31
2023-01-29T21:46:55.994Z,71.89
2023-01-29T21:49:22.755Z,71.50
2023-01-29T21:52:12.285Z,71.91
2023-01-29T21:58:01.773Z,71.59
2023-01-29T22:00:30.007Z,71.38
2023-01-29T22:02:57.691Z,71.53
2023-01-29T22:05:27.185Z,71.70
2023-01-29T22:07:54.605Z,71.42
2023-01-29T22:13:50.604Z,72.91
2023-01-29T22:16:17.893Z,72.00
2023-01-29T22:18:45.126Z,73.03
2023-01-29T22:21:12.213Z,72.13
2023-01-29T22:23:39.482Z,73.08
2023-01-29T22:26:06.454Z,73.00
2023-01-29T22:28:33.226Z,73.17
2023-01-29T22:31:03.363Z,73.38
2023-01-29T22:33:30.060Z,73.22
2023-01-29T22:35:56.938Z,72.78
2023-01-29T22:38:23.972Z,73.23
2023-01-29T22:40:51.197Z,73.30
2023-01-29T22:43:17.855Z,72.53
2023-01-29T22:45:44.809Z,72.46
2023-01-29T22:48:11.940Z,72.30
2023-01-29T22:50:38.944Z,72.38
2023-01-29T22:53:05.694Z,72.77
2023-01-29T22:55:32.295Z,72.46
2023-01-29T22:57:58.796Z,72.93
2023-01-29T23:00:25.475Z,72.98
2023-01-29T23:02:52.057Z,72.28
2023-01-29T23:05:18.617Z,72.72
2023-01-29T23:07:45.270Z,72.71
2023-01-29T23:10:13.250Z,72.71
2023-01-29T23:12:39.763Z,72.67
2023-01-29T23:15:06.645Z,72.28
2023-01-29T23:17:33.183Z,72.78
2023-01-29T23:19:59.847Z,72.35
2023-01-29T23:22:26.435Z,71.41
2023-01-29T23:24:53.205Z,72.07
2023-01-29T23:27:20.172Z,71.99
2023-01-29T23:29:47.456Z,72.24
2023-01-29T23:32:20.210Z,72.66
2023-01-29T23:34:48.097Z,72.79
2023-01-29T23:37:14.839Z,73.24
2023-01-29T23:39:42.937Z,72.89
2023-01-29T23:42:12.736Z,72.66
2023-01-29T23:44:43.432Z,72.67
2023-01-29T23:47:13.277Z,72.84
2023-01-29T23:49:39.804Z,73.01
2023-01-29T23:52:07.048Z,72.95
2023-01-29T23:54:41.188Z,73.16
2023-01-29T23:57:21.145Z,73.12
2023-01-29T23:59:55.946Z,73.31
